Create Custom Reports and Graphics: Custom Report

North/Central Map

Map

15 Minute Data

South County Map

Map

15 Minute Data

Northern Sonoma County Latest

13 Stations

15 Minute Data | America/Los_Angeles
as of 5/25/20 2:28 PM PDT
Station Date Time Temp (°F) RH (%) Dew Pt (°F) Wind Spd (mph) Wind Dir (°) Wind Gust (mph) Latest Rain (In) Daily Rain (In) Daily Min Temp (°F) Daily Max Temp (°F)
Rockpile Upper (Cooley) 5/25/20 1415 89.6   5.3 29   5 52.7   9.2 6.8 SSW | 193 13.8   5.5 0.00 0.00 63.4   12.4 90.4   5.3
Rockpile Lower (Cooley) 5/25/20 1400 93.1   6.5 22   2 49.1   8.3 2.8 SW | 218 7.2   0.5 0.00 0.00 64.1   10.3 94.3   6.4
Cloverdale-East (Ranch 83) 5/25/20 1415 96.7   5.4 23   4 53.3   9.5 3.4 SSE | 155 9.6   2.2 0.00 0.00 64.1   7.9 97.4   5.3
Cloverdale-SE (Ranch 38) 5/25/20 1415 95.3   4.5 24   4 53.0   8.8 5.3 SE | 145 14.9   3.2 0.00 0.00 65.0   8.4 96.4   4.0
Geyserville-North (Hoffman) 5/25/20 1415 93.7   3.9 30   7 57.4   11.1 5.3 SE | 127 10.4   6.6 0.00 0.00 54.4   5.9 94.4   3.5
Geyserville (Ranch 3) 5/25/20 1415 94.6   4.3 27   7 55.8   11.8 6.0 ESE | 111 10.4   3.4 0.00 0.00 57.8   6.0 94.8   3.7
Geyserville-East (Ranch 40) 5/25/20 1415 93.5   4.0 28   4 55.2   7.9 6.8 SSW | 197 11.7   0.1 0.00 0.00 61.9   8.4 95.7   5.0
Geyserville-South (Nervo Station) 5/25/20 1415 94.0   4.5 25   3 52.7   7.5 4.5 SSE | 156 9.5   1.0 0.00 0.00 59.4   7.8 94.8   4.1
Lytton (River Oaks) 5/25/20 1415 94.9   4.8 23   2 51.2   6.8 5.5 SE | 138 10.3   1.4 0.00 0.00 52.0   5.1 95.4   4.6
Jimtown-North (Piccolo-R15) 5/25/20 1415 93.6   5.3 23   2 50.7   7.4 2.4 SE | 133 7.2   1.3 0.00 0.00 52.4   5.9 94.1   4.8
Jimtown-NE (Red Fan) 5/25/20 1415 94.4   4.7 27   3 54.8   7.8 4.1 SSW | 207 10.2   3.9 0.00 0.00 53.6   5.3 94.6   4.7
HWY 128/Chalk Hill Rd (Landslide) 5/25/20 1415 94.7   5.2 25   2 53.8   6.0 4.4 S | 187 10.0   1.3 0.00 0.00 52.6   5.8 95.5   5.5
Lower Dry Creek Valley 5/25/20 1415 94.5   4.9 25   2 53.1   6.7 6.7 SSE | 159 12.7   6.3 0.00 0.00 53.6   4.8 94.9   4.7
Max     96.7 30 57.4 6.8 - 14.9 0.00 0.00 65.0 97.4
Avg     94.0 25 53.3 4.9 - 10.6 0.00 - - -
Min     89.6 22 49.1 2.4 - 7.2 0.00 0.00 52.0 90.4

Central Sonoma County Latest

27 Stations

15 Minute Data | America/Los_Angeles
as of 5/25/20 2:28 PM PDT
Station Date Time Temp (°F) RH (%) Dew Pt (°F) Wind Spd (mph) Wind Dir (°) Wind Gust (mph) Latest Rain (In) Daily Rain (In) Daily Min Temp (°F) Daily Max Temp (°F)
Healdsburg-South (Sodini) 5/25/20 1415 96.1   5.7 24   7 53.9   13.2 5.5 SSE | 161 11.8   3.0 0.00 0.00 52.6   5.1 96.4   5.7
Windsor-NW (Ranch 8) 5/25/20 1415 94.3   5.6 28   4 56.2   8.5 4.0 SSE | 153 9.4   1.5 0.00 0.00 54.9   4.4 95.6   5.4
Windsor-East (Ranch 16) 5/25/20 1415 92.8   6.0 27   0 53.4   5.1 5.6 S | 176 10.0   2.2 0.00 0.00 52.2   4.9 93.6   6.1
Mark West-North (Ranch 14) 5/25/20 1415 91.4   4.9 24   4 49.4   0.1 5.4 SSW | 192 10.3   2.2 0.00 0.00 51.9   5.5 92.4   5.3
Windsor-SE (Silk Rd) 5/25/20 1415 93.5   5.9 25   7 52.4   1.6 4.9 S | 175 10.5   2.2 0.00 0.00 50.2   4.9 94.0   5.8
Fulton-NW (Ranch 5) 5/25/20 1415 92.2   5.4 24   6 50.6   1.0 6.8 S | 174 12.8   2.8 0.00 0.00 51.5   5.0 93.2   5.7
Windsor-South (Laughlin Rd) 5/25/20 1415 94.5   7.7 - - - - - 0.00 0.00 51.5   4.6 95.4   6.6
Fulton-SE (Barnes Rd) 5/25/20 1415 91.2   6.2 26   3 51.7   2.2 5.8 SSW | 206 10.0   0.6 0.00 0.00 51.6   4.9 92.4   6.2
Fulton-SW (Ranch 21) 5/25/20 1415 91.9   6.5 24   5 49.6   0.3 7.1 SSW | 212 13.5   3.2 0.00 0.00 51.8   4.9 92.9   6.1
Santa Rosa-NW (Goldfields) 5/25/20 1415 91.1   6.3 24   5 49.0   0.4 6.7 S | 189 13.9   3.0 0.00 0.00 52.5   4.6 92.7   6.1
NW Santa Rosa (Piner Road) 5/25/20 1415 90.5   6.4 25   5 50.2   1.0 9.0 SW | 214 15.8   5.7 0.00 0.00 50.2   4.4 92.0   6.2
River Rd South (Denner Ranch) 5/25/20 1415 90.8   5.1 28   6 52.8   1.2 11.1 SSE | 167 18.2   4.8 0.00 0.00 50.2   4.9 91.6   5.2
West Santa Rosa (Hawk's Roost) 5/25/20 1415 89.8   6.0 27   5 51.0   0.9 5.4 SSW | 198 12.0   3.6 0.00 0.00 50.9   4.6 91.0   5.8
Guerneville Rd (Prokopakis) 4/12/20 1500 68.6   10.1 63   13 55.6   4.7 - - - - - 50.3   4.4 69.1   10.3
Guerneville Rd West (Balletto) 5/25/20 1415 89.3   6.1 28   6 52.0   0.2 8.3 SW | 218 13.6   2.3 0.00 0.00 50.3   4.5 91.1   7.0
Guerneville Rd East (Rich Ranch) 5/25/20 1415 91.2   6.2 27   4 52.8   1.6 - - - - - 51.1   4.6 92.9   7.1
Occidental Rd (Sebastopol) 5/25/20 1415 89.3   6.1 25   1 49.4   4.3 7.1 SW | 220 15.3   0.2 0.00 0.00 49.5   5.2 91.6   7.3
Lower Westside Rd (Ranch 12) 5/25/20 1415 93.6   4.1 25   5 52.1   1.9 4.5 WSW | 253 9.8   0.6 0.00 0.00 51.5   4.4 94.3   4.2
Guerneville (Laughlin Rd) 5/25/20 1415 92.0   6.1 23   1 48.9   6.7 5.4 S | 185 11.6   0.2 0.00 0.00 51.2   3.8 92.5   6.0
Korbel (Winery) 5/25/20 1415 91.8   6.1 22   1 47.8   6.2 4.7 W | 270 11.3   2.3 0.00 0.00 53.3   3.8 93.8   6.4
Forestville (Shone Farms) 5/25/20 1415 94.3   5.7 23   7 50.4   2.6 5.1 S | 186 12.4   2.7 0.00 0.00 52.3   3.4 96.4   6.4
Forestville-NE (Ranch 30) 5/25/20 1415 93.8   5.9 26   7 53.3   1.8 6.6 SSW | 212 15.4   4.7 0.00 0.00 51.9   5.3 94.3   5.1
Graton-West (Dutton Ranch) 5/25/20 1415 91.3   5.7 25   1 50.8   3.7 5.1 S | 188 11.5   2.0 0.00 0.00 50.5   4.8 92.9   6.1
Graton-South (Mill Station Rd) 5/25/20 1415 85.7   6.0 32   2 52.4   4.0 9.1 SW | 227 15.0   1.4 0.00 0.00 48.1   4.8 87.6   7.5
Sexton Valley (Jacqueline's Blk) 5/25/20 1415 85.3   6.4 40   2 58.4   4.2 3.0 WSW | 241 10.0   1.9 0.00 0.00 49.7   4.5 86.8   7.3
Sebastopol Hills (Burnside Rd) 5/25/20 1415 82.5   7.2 41   4 56.5   3.8 7.8 WSW | 237 11.8   1.5 0.00 0.00 57.6   6.3 83.6   7.3
Seaview/Fort Ross (Hirsch) 5/25/20 1415 83.8   8.9 30   5 49.1   3.4 2.5 W | 263 5.5   2.3 0.00 0.00 71.1   15.9 84.4   7.1
Max     96.1 41 58.4 11.1 - 18.2 0.00 0.00 71.1 96.4
Avg     90.9 27 51.8 6.1 - 12.2 0.00 - - -
Min     82.5 22 47.8 2.5 - 5.5 0.00 0.00 48.1 83.6

Southern Sonoma County Latest

14 Stations

15 Minute Data | America/Los_Angeles
as of 5/25/20 2:28 PM PDT
Station Date Time Temp (°F) RH (%) Dew Pt (°F) Wind Spd (mph) Wind Dir (°) Wind Gust (mph) Latest Rain (In) Daily Rain (In) Daily Min Temp (°F) Daily Max Temp (°F)
Lower Bennett Valley 5/25/20 1415 90.9   7.3 29   2 54.7   4.9 5.5 SSW | 213 11.1   1.2 0.00 0.00 48.1   6.3 91.4   7.2
Kenwood (Kunde) 5/25/20 1415 92.2   6.8 28   2 54.8   3.7 2.6 WSW | 240 12.1   1.2 0.00 0.00 49.4   6.8 93.1   7.2
Sonoma Valley (Bedrock) 5/25/20 1415 93.6   6.8 21   5 47.9   0.0 4.5 N | 349 11.1   2.7 0.00 0.00 50.9   5.8 94.4   6.7
Sonoma-West (Arnold) 5/25/20 1415 95.6   7.0 24   4 53.4   2.2 5.6 WSW | 256 12.1   2.2 0.00 0.00 50.3   5.8 96.2   7.3
Schellville 5/25/20 1415 95.9   5.7 23   2 52.3   2.4 3.1 SSE | 164 6.8   0.3 0.00 0.00 50.8   5.3 97.0   6.4
Sonoma-SE (Napoli) 5/25/20 1415 95.8   8.3 23   5 52.4   1.3 2.2 S | 186 6.1   2.7 0.00 0.00 50.3   5.9 97.2   8.9
Carneros (Ranch 71) 5/25/20 1415 92.2   7.7 25   4 51.1   2.1 4.8 SSW | 196 10.7   1.5 0.00 0.00 60.0   7.0 93.0   7.4
Carneros Upper (Ranch 81) 5/25/20 1415 94.2   7.8 23   4 50.5   2.4 6.0 SSW | 192 14.3   1.8 - - 59.4   6.2 94.7   7.7
Carneros Lower (Ranch 81) 5/25/20 1415 92.0   8.0 30   3 55.7   4.5 3.9 S | 172 8.6   1.5 0.00 0.00 50.5   6.1 92.4   7.8
Rohnert Park-West (Stony Point) 5/25/20 1415 86.5   7.3 33   6 53.7   1.6 8.4 SW | 224 13.7   1.5 0.00 0.00 47.2   5.5 88.7   7.3
Penngrove (Asellus) 5/25/20 1415 90.3   8.1 27   4 51.6   3.5 6.7 W | 264 10.9   0.7 0.00 0.00 48.1   5.1 93.0   8.6
Roger's Creek (Ranch 50) 5/25/20 1415 91.4   7.7 28   4 53.3   3.0 7.4 W | 273 13.1   0.7 0.00 0.00 61.5   8.9 92.2   7.9
Petaluma (Ranch 10) 5/25/20 1415 94.3   7.2 27   1 55.2   5.6 5.6 W | 280 12.1   2.4 0.00 0.00 48.1   5.9 94.9   7.3
Lakeville (Ranch 47) 5/25/20 1415 91.9   6.7 26   3 51.9   3.1 6.5 SSE | 155 11.4   0.9 0.00 0.00 48.8   5.0 92.1   6.0
Max     95.9 33 55.7 8.4 - 14.3 0.00 0.00 61.5 97.2
Avg     92.6 26 52.8 5.2 - 11.0 0.00 - - -
Min     86.5 21 47.9 2.2 - 6.1 0.00 0.00 47.2 88.7